sensor_id;sensor_type;location;lat;lon;timestamp;pressure;altitude;pressure_sealevel;temperature;humidity
58373;BME280;44177;43.356;27.672;2023-03-25T00:00:57;97919.16;;;5.34;83.16
58373;BME280;44177;43.356;27.672;2023-03-25T00:03:24;97901.03;;;5.17;83.22
58373;BME280;44177;43.356;27.672;2023-03-25T00:05:51;97921.38;;;5.32;83.17
58373;BME280;44177;43.356;27.672;2023-03-25T00:08:17;97916.91;;;5.27;83.07
58373;BME280;44177;43.356;27.672;2023-03-25T00:10:42;97917.06;;;5.31;82.91
58373;BME280;44177;43.356;27.672;2023-03-25T00:13:08;97916.78;;;5.15;83.30
58373;BME280;44177;43.356;27.672;2023-03-25T00:15:43;97918.38;;;5.16;83.52
58373;BME280;44177;43.356;27.672;2023-03-25T00:18:12;97916.44;;;5.08;83.93
58373;BME280;44177;43.356;27.672;2023-03-25T00:20:38;97907.84;;;5.05;83.79
58373;BME280;44177;43.356;27.672;2023-03-25T00:23:10;97902.91;;;4.99;83.65
58373;BME280;44177;43.356;27.672;2023-03-25T00:25:37;97885.88;;;4.89;83.83
58373;BME280;44177;43.356;27.672;2023-03-25T00:28:02;97890.16;;;4.90;83.62
58373;BME280;44177;43.356;27.672;2023-03-25T00:30:28;97898.78;;;4.93;83.89
58373;BME280;44177;43.356;27.672;2023-03-25T00:32:53;97892.25;;;4.85;83.73
58373;BME280;44177;43.356;27.672;2023-03-25T00:35:20;97898.91;;;4.79;83.67
58373;BME280;44177;43.356;27.672;2023-03-25T00:37:47;97896.19;;;4.79;83.94
58373;BME280;44177;43.356;27.672;2023-03-25T00:40:25;97896.69;;;4.81;83.37
58373;BME280;44177;43.356;27.672;2023-03-25T00:42:53;97891.72;;;4.74;83.95
58373;BME280;44177;43.356;27.672;2023-03-25T00:45:18;97886.16;;;4.70;84.26
58373;BME280;44177;43.356;27.672;2023-03-25T00:47:44;97882.03;;;4.64;84.35
58373;BME280;44177;43.356;27.672;2023-03-25T00:50:10;97879.00;;;4.66;84.90
58373;BME280;44177;43.356;27.672;2023-03-25T00:52:35;97878.22;;;4.65;84.91
58373;BME280;44177;43.356;27.672;2023-03-25T00:55:01;97870.28;;;4.60;85.01
58373;BME280;44177;43.356;27.672;2023-03-25T00:57:27;97869.47;;;4.59;85.09
58373;BME280;44177;43.356;27.672;2023-03-25T00:59:52;97865.81;;;4.55;85.26
58373;BME280;44177;43.356;27.672;2023-03-25T01:02:18;97864.03;;;4.51;85.45
58373;BME280;44177;43.356;27.672;2023-03-25T01:04:46;97868.19;;;4.48;85.77
58373;BME280;44177;43.356;27.672;2023-03-25T01:07:14;97854.50;;;4.45;85.72
58373;BME280;44177;43.356;27.672;2023-03-25T01:09:40;97854.03;;;4.42;85.89
58373;BME280;44177;43.356;27.672;2023-03-25T01:12:07;97848.63;;;4.42;86.08
58373;BME280;44177;43.356;27.672;2023-03-25T01:14:32;97849.06;;;4.36;86.32
58373;BME280;44177;43.356;27.672;2023-03-25T01:16:58;97839.06;;;4.36;86.07
58373;BME280;44177;43.356;27.672;2023-03-25T01:19:24;97844.66;;;4.49;85.95
58373;BME280;44177;43.356;27.672;2023-03-25T01:21:50;97826.84;;;4.48;85.82
58373;BME280;44177;43.356;27.672;2023-03-25T01:24:15;97842.94;;;4.62;85.40
58373;BME280;44177;43.356;27.672;2023-03-25T01:26:42;97839.91;;;4.63;84.91
58373;BME280;44177;43.356;27.672;2023-03-25T01:29:09;97840.22;;;4.62;84.31
58373;BME280;44177;43.356;27.672;2023-03-25T01:31:35;97838.78;;;4.64;84.43
58373;BME280;44177;43.356;27.672;2023-03-25T01:34:01;97832.28;;;4.65;84.81
58373;BME280;44177;43.356;27.672;2023-03-25T01:36:26;97836.13;;;4.82;84.97
58373;BME280;44177;43.356;27.672;2023-03-25T01:38:56;97832.13;;;4.88;84.79
58373;BME280;44177;43.356;27.672;2023-03-25T01:41:23;97816.41;;;4.90;84.79
58373;BME280;44177;43.356;27.672;2023-03-25T01:44:03;97816.72;;;4.97;84.59
58373;BME280;44177;43.356;27.672;2023-03-25T01:46:29;97820.38;;;4.93;84.53
58373;BME280;44177;43.356;27.672;2023-03-25T01:48:55;97811.63;;;4.87;84.70
58373;BME280;44177;43.356;27.672;2023-03-25T01:51:29;97824.69;;;4.85;85.40
58373;BME280;44177;43.356;27.672;2023-03-25T01:53:56;97825.31;;;4.90;85.15
58373;BME280;44177;43.356;27.672;2023-03-25T01:56:25;97823.25;;;4.96;84.62
58373;BME280;44177;43.356;27.672;2023-03-25T01:58:52;97798.75;;;4.84;84.61
58373;BME280;44177;43.356;27.672;2023-03-25T02:01:18;97809.88;;;5.09;84.17
58373;BME280;44177;43.356;27.672;2023-03-25T02:03:51;97813.38;;;5.09;83.65
58373;BME280;44177;43.356;27.672;2023-03-25T02:06:24;97807.19;;;5.09;83.18
58373;BME280;44177;43.356;27.672;2023-03-25T02:08:57;97810.03;;;5.03;83.15
58373;BME280;44177;43.356;27.672;2023-03-25T02:11:23;97791.75;;;4.83;83.62
58373;BME280;44177;43.356;27.672;2023-03-25T02:13:57;97802.72;;;4.86;83.54
58373;BME280;44177;43.356;27.672;2023-03-25T02:22:23;97806.88;;;4.93;84.44
58373;BME280;44177;43.356;27.672;2023-03-25T02:30:49;97806.09;;;4.92;84.98
58373;BME280;44177;43.356;27.672;2023-03-25T02:33:22;97802.28;;;4.93;85.37
58373;BME280;44177;43.356;27.672;2023-03-25T02:41:22;97789.69;;;4.80;89.10
58373;BME280;44177;43.356;27.672;2023-03-25T02:43:57;97797.63;;;4.76;89.99
58373;BME280;44177;43.356;27.672;2023-03-25T02:46:27;97781.59;;;4.71;90.35
58373;BME280;44177;43.356;27.672;2023-03-25T02:49:01;97789.84;;;4.66;91.22
58373;BME280;44177;43.356;27.672;2023-03-25T02:51:39;97790.50;;;4.63;91.84
58373;BME280;44177;43.356;27.672;2023-03-25T02:54:10;97782.22;;;4.59;92.27
58373;BME280;44177;43.356;27.672;2023-03-25T02:56:38;97771.72;;;4.49;92.73
58373;BME280;44177;43.356;27.672;2023-03-25T02:59:07;97769.34;;;4.47;92.81
58373;BME280;44177;43.356;27.672;2023-03-25T03:01:34;97765.66;;;4.43;93.33
58373;BME280;44177;43.356;27.672;2023-03-25T03:04:00;97754.69;;;4.39;93.72
58373;BME280;44177;43.356;27.672;2023-03-25T03:06:26;97757.56;;;4.43;93.68
58373;BME280;44177;43.356;27.672;2023-03-25T03:09:44;97757.41;;;4.39;93.74
58373;BME280;44177;43.356;27.672;2023-03-25T03:19:39;97751.34;;;4.25;95.45
58373;BME280;44177;43.356;27.672;2023-03-25T03:25:33;97741.53;;;4.29;96.16
58373;BME280;44177;43.356;27.672;2023-03-25T03:27:56;97742.00;;;4.31;96.68
58373;BME280;44177;43.356;27.672;2023-03-25T03:35:54;97744.38;;;4.24;97.56
58373;BME280;44177;43.356;27.672;2023-03-25T03:38:25;97743.41;;;4.29;98.24
58373;BME280;44177;43.356;27.672;2023-03-25T03:40:55;97750.91;;;4.32;98.81
58373;BME280;44177;43.356;27.672;2023-03-25T03:43:30;97749.63;;;4.38;100.00
58373;BME280;44177;43.356;27.672;2023-03-25T03:46:06;97746.16;;;4.37;100.00
58373;BME280;44177;43.356;27.672;2023-03-25T03:48:40;97751.53;;;4.37;100.00
58373;BME280;44177;43.356;27.672;2023-03-25T03:51:20;97743.44;;;4.37;100.00
58373;BME280;44177;43.356;27.672;2023-03-25T03:56:28;97738.97;;;4.24;100.00
58373;BME280;44177;43.356;27.672;2023-03-25T03:58:57;97746.59;;;4.22;100.00
58373;BME280;44177;43.356;27.672;2023-03-25T04:01:43;97738.16;;;4.15;100.00
58373;BME280;44177;43.356;27.672;2023-03-25T04:04:13;97745.13;;;4.07;100.00
58373;BME280;44177;43.356;27.672;2023-03-25T04:06:43;97743.38;;;4.02;100.00
58373;BME280;44177;43.356;27.672;2023-03-25T04:12:07;97746.06;;;4.02;100.00
58373;BME280;44177;43.356;27.672;2023-03-25T04:14:36;97730.97;;;4.01;100.00
58373;BME280;44177;43.356;27.672;2023-03-25T04:17:04;97725.25;;;3.94;100.00
58373;BME280;44177;43.356;27.672;2023-03-25T04:19:29;97732.09;;;4.00;100.00
58373;BME280;44177;43.356;27.672;2023-03-25T04:21:58;97714.63;;;3.89;100.00
58373;BME280;44177;43.356;27.672;2023-03-25T04:24:26;97734.16;;;4.03;100.00
58373;BME280;44177;43.356;27.672;2023-03-25T04:26:56;97744.53;;;4.10;100.00
58373;BME280;44177;43.356;27.672;2023-03-25T04:29:22;97747.22;;;4.10;100.00
58373;BME280;44177;43.356;27.672;2023-03-25T04:31:48;97745.63;;;4.18;100.00
58373;BME280;44177;43.356;27.672;2023-03-25T04:34:14;97742.31;;;4.30;100.00
58373;BME280;44177;43.356;27.672;2023-03-25T04:36:40;97734.66;;;4.23;100.00
58373;BME280;44177;43.356;27.672;2023-03-25T04:39:08;97735.00;;;4.30;100.00
58373;BME280;44177;43.356;27.672;2023-03-25T04:41:36;97744.22;;;4.38;100.00
58373;BME280;44177;43.356;27.672;2023-03-25T04:44:01;97734.72;;;4.49;100.00
58373;BME280;44177;43.356;27.672;2023-03-25T04:46:27;97736.13;;;4.64;100.00
58373;BME280;44177;43.356;27.672;2023-03-25T04:48:52;97717.69;;;4.66;100.00
58373;BME280;44177;43.356;27.672;2023-03-25T04:51:18;97729.13;;;4.81;100.00
58373;BME280;44177;43.356;27.672;2023-03-25T04:53:44;97728.63;;;4.79;100.00
58373;BME280;44177;43.356;27.672;2023-03-25T04:56:17;97733.41;;;4.82;100.00
58373;BME280;44177;43.356;27.672;2023-03-25T04:58:43;97725.31;;;4.82;100.00
58373;BME280;44177;43.356;27.672;2023-03-25T05:01:24;97734.22;;;4.91;100.00
58373;BME280;44177;43.356;27.672;2023-03-25T05:04:02;97748.97;;;5.02;100.00
58373;BME280;44177;43.356;27.672;2023-03-25T05:06:34;97738.59;;;5.22;100.00
58373;BME280;44177;43.356;27.672;2023-03-25T05:09:01;97739.81;;;5.33;100.00
58373;BME280;44177;43.356;27.672;2023-03-25T05:11:29;97745.94;;;5.60;100.00
58373;BME280;44177;43.356;27.672;2023-03-25T05:13:55;97740.00;;;5.76;100.00
58373;BME280;44177;43.356;27.672;2023-03-25T05:16:21;97747.06;;;5.98;100.00
58373;BME280;44177;43.356;27.672;2023-03-25T05:18:47;97745.19;;;6.20;100.00
58373;BME280;44177;43.356;27.672;2023-03-25T05:21:13;97755.22;;;6.49;100.00
58373;BME280;44177;43.356;27.672;2023-03-25T05:23:38;97744.69;;;6.69;99.19
58373;BME280;44177;43.356;27.672;2023-03-25T05:26:06;97740.63;;;6.96;97.41
58373;BME280;44177;43.356;27.672;2023-03-25T05:28:32;97731.56;;;7.25;95.79
58373;BME280;44177;43.356;27.672;2023-03-25T05:30:58;97731.13;;;7.36;94.15
58373;BME280;44177;43.356;27.672;2023-03-25T05:33:24;97720.63;;;7.59;92.72
58373;BME280;44177;43.356;27.672;2023-03-25T05:35:49;97722.13;;;7.69;92.06
58373;BME280;44177;43.356;27.672;2023-03-25T05:38:15;97719.41;;;7.81;91.00
58373;BME280;44177;43.356;27.672;2023-03-25T05:40:47;97722.09;;;7.94;90.09
58373;BME280;44177;43.356;27.672;2023-03-25T05:43:14;97719.16;;;8.24;89.20
58373;BME280;44177;43.356;27.672;2023-03-25T05:45:40;97707.56;;;8.39;88.40
58373;BME280;44177;43.356;27.672;2023-03-25T05:48:07;97713.19;;;8.59;88.16
58373;BME280;44177;43.356;27.672;2023-03-25T05:50:33;97714.81;;;8.47;86.81
58373;BME280;44177;43.356;27.672;2023-03-25T05:53:00;97705.28;;;8.53;86.34
58373;BME280;44177;43.356;27.672;2023-03-25T05:55:26;97685.34;;;8.49;87.87
58373;BME280;44177;43.356;27.672;2023-03-25T05:57:52;97695.56;;;8.40;87.96
58373;BME280;44177;43.356;27.672;2023-03-25T06:00:18;97699.16;;;8.44;88.52
58373;BME280;44177;43.356;27.672;2023-03-25T06:02:46;97699.84;;;8.53;87.93
58373;BME280;44177;43.356;27.672;2023-03-25T06:05:14;97699.28;;;8.48;88.10
58373;BME280;44177;43.356;27.672;2023-03-25T06:07:44;97698.47;;;8.60;88.32
58373;BME280;44177;43.356;27.672;2023-03-25T06:10:15;97687.75;;;8.79;87.31
58373;BME280;44177;43.356;27.672;2023-03-25T06:12:45;97688.16;;;9.26;85.20
58373;BME280;44177;43.356;27.672;2023-03-25T06:15:12;97684.13;;;9.36;84.35
58373;BME280;44177;43.356;27.672;2023-03-25T06:17:38;97690.91;;;9.58;83.14
58373;BME280;44177;43.356;27.672;2023-03-25T06:20:06;97695.09;;;9.71;82.24
58373;BME280;44177;43.356;27.672;2023-03-25T06:22:39;97707.72;;;9.95;81.24
58373;BME280;44177;43.356;27.672;2023-03-25T06:25:08;97714.16;;;10.23;79.89
58373;BME280;44177;43.356;27.672;2023-03-25T06:27:33;97711.22;;;10.48;78.07
58373;BME280;44177;43.356;27.672;2023-03-25T06:30:08;97718.84;;;10.97;77.22
58373;BME280;44177;43.356;27.672;2023-03-25T06:32:35;97715.31;;;11.40;76.78
58373;BME280;44177;43.356;27.672;2023-03-25T06:35:01;97721.56;;;11.63;73.48
58373;BME280;44177;43.356;27.672;2023-03-25T06:37:26;97724.28;;;11.87;73.15
58373;BME280;44177;43.356;27.672;2023-03-25T06:39:52;97718.84;;;12.13;71.76
58373;BME280;44177;43.356;27.672;2023-03-25T06:42:26;97726.63;;;12.38;69.61
58373;BME280;44177;43.356;27.672;2023-03-25T06:44:53;97725.09;;;12.41;69.39
58373;BME280;44177;43.356;27.672;2023-03-25T06:47:19;97711.44;;;12.75;68.89
58373;BME280;44177;43.356;27.672;2023-03-25T06:49:45;97719.69;;;12.78;67.05
58373;BME280;44177;43.356;27.672;2023-03-25T06:52:11;97709.03;;;13.04;68.45
58373;BME280;44177;43.356;27.672;2023-03-25T06:54:36;97711.19;;;13.21;66.95
58373;BME280;44177;43.356;27.672;2023-03-25T06:57:03;97718.59;;;13.58;65.60
58373;BME280;44177;43.356;27.672;2023-03-25T06:59:28;97714.09;;;13.81;64.77
58373;BME280;44177;43.356;27.672;2023-03-25T07:01:54;97709.69;;;13.69;65.15
58373;BME280;44177;43.356;27.672;2023-03-25T07:04:19;97713.44;;;14.02;63.41
58373;BME280;44177;43.356;27.672;2023-03-25T07:06:45;97701.75;;;14.12;63.03
58373;BME280;44177;43.356;27.672;2023-03-25T07:09:10;97696.94;;;13.95;63.79
58373;BME280;44177;43.356;27.672;2023-03-25T07:11:35;97713.25;;;14.36;61.97
58373;BME280;44177;43.356;27.672;2023-03-25T07:14:01;97703.44;;;14.35;62.23
58373;BME280;44177;43.356;27.672;2023-03-25T07:16:27;97701.19;;;14.51;63.16
58373;BME280;44177;43.356;27.672;2023-03-25T07:18:52;97706.81;;;14.80;59.99
58373;BME280;44177;43.356;27.672;2023-03-25T07:21:21;97710.00;;;14.97;60.08
58373;BME280;44177;43.356;27.672;2023-03-25T07:23:47;97702.22;;;15.10;60.75
58373;BME280;44177;43.356;27.672;2023-03-25T07:26:13;97718.34;;;15.26;59.52
58373;BME280;44177;43.356;27.672;2023-03-25T07:28:38;97711.63;;;15.20;58.89
58373;BME280;44177;43.356;27.672;2023-03-25T07:31:12;97705.44;;;15.95;58.26
58373;BME280;44177;43.356;27.672;2023-03-25T07:33:38;97711.72;;;15.92;56.61
58373;BME280;44177;43.356;27.672;2023-03-25T07:36:04;97704.63;;;15.76;57.35
58373;BME280;44177;43.356;27.672;2023-03-25T07:38:31;97707.00;;;15.82;57.42
58373;BME280;44177;43.356;27.672;2023-03-25T07:40:56;97714.09;;;15.97;55.51
58373;BME280;44177;43.356;27.672;2023-03-25T07:43:22;97710.16;;;15.94;56.79
58373;BME280;44177;43.356;27.672;2023-03-25T07:45:47;97713.25;;;16.18;57.32
58373;BME280;44177;43.356;27.672;2023-03-25T07:48:13;97703.75;;;16.52;55.85
58373;BME280;44177;43.356;27.672;2023-03-25T07:50:41;97699.84;;;16.46;54.67
58373;BME280;44177;43.356;27.672;2023-03-25T07:53:07;97696.72;;;16.44;55.69
58373;BME280;44177;43.356;27.672;2023-03-25T07:55:32;97702.88;;;16.80;53.53
58373;BME280;44177;43.356;27.672;2023-03-25T07:57:58;97695.25;;;17.10;54.42
58373;BME280;44177;43.356;27.672;2023-03-25T08:00:26;97684.66;;;17.08;54.17
58373;BME280;44177;43.356;27.672;2023-03-25T08:02:52;97692.72;;;17.37;53.01
58373;BME280;44177;43.356;27.672;2023-03-25T08:05:18;97678.19;;;17.33;52.35
58373;BME280;44177;43.356;27.672;2023-03-25T08:07:47;97680.00;;;17.54;52.11
58373;BME280;44177;43.356;27.672;2023-03-25T08:10:12;97680.31;;;17.67;52.45
58373;BME280;44177;43.356;27.672;2023-03-25T08:12:42;97683.91;;;18.06;51.34
58373;BME280;44177;43.356;27.672;2023-03-25T08:15:09;97670.44;;;18.15;51.14
58373;BME280;44177;43.356;27.672;2023-03-25T08:17:36;97686.09;;;17.83;50.18
58373;BME280;44177;43.356;27.672;2023-03-25T08:20:03;97676.66;;;17.77;52.17
58373;BME280;44177;43.356;27.672;2023-03-25T08:22:30;97684.00;;;17.98;52.06
58373;BME280;44177;43.356;27.672;2023-03-25T08:24:56;97670.66;;;17.90;52.28
58373;BME280;44177;43.356;27.672;2023-03-25T08:27:21;97678.63;;;18.22;51.05
58373;BME280;44177;43.356;27.672;2023-03-25T08:29:47;97671.47;;;18.28;50.29
58373;BME280;44177;43.356;27.672;2023-03-25T08:32:19;97677.44;;;18.23;49.12
58373;BME280;44177;43.356;27.672;2023-03-25T08:34:46;97661.44;;;18.45;50.19
58373;BME280;44177;43.356;27.672;2023-03-25T08:37:11;97649.06;;;18.57;50.04
58373;BME280;44177;43.356;27.672;2023-03-25T08:39:37;97658.16;;;18.54;48.93
58373;BME280;44177;43.356;27.672;2023-03-25T08:42:11;97653.88;;;18.50;50.64
58373;BME280;44177;43.356;27.672;2023-03-25T08:44:37;97657.94;;;18.72;50.48
58373;BME280;44177;43.356;27.672;2023-03-25T08:47:03;97660.19;;;19.12;48.75
58373;BME280;44177;43.356;27.672;2023-03-25T08:49:29;97658.94;;;19.44;48.14
58373;BME280;44177;43.356;27.672;2023-03-25T08:51:54;97646.63;;;19.49;46.89
58373;BME280;44177;43.356;27.672;2023-03-25T08:54:23;97655.44;;;19.40;45.70
58373;BME280;44177;43.356;27.672;2023-03-25T08:56:48;97645.63;;;19.35;48.04
58373;BME280;44177;43.356;27.672;2023-03-25T08:59:13;97647.09;;;19.67;45.84
58373;BME280;44177;43.356;27.672;2023-03-25T09:01:39;97648.47;;;19.79;49.19
58373;BME280;44177;43.356;27.672;2023-03-25T09:04:06;97642.94;;;19.55;46.63
58373;BME280;44177;43.356;27.672;2023-03-25T09:06:31;97647.28;;;19.56;46.65
58373;BME280;44177;43.356;27.672;2023-03-25T09:08:57;97648.22;;;19.70;45.51
58373;BME280;44177;43.356;27.672;2023-03-25T09:11:24;97648.22;;;19.46;47.42
58373;BME280;44177;43.356;27.672;2023-03-25T09:13:50;97645.06;;;19.48;44.61
58373;BME280;44177;43.356;27.672;2023-03-25T09:16:16;97631.97;;;19.24;47.07
58373;BME280;44177;43.356;27.672;2023-03-25T09:18:41;97629.34;;;19.88;47.92
58373;BME280;44177;43.356;27.672;2023-03-25T09:21:07;97616.53;;;20.39;45.51
58373;BME280;44177;43.356;27.672;2023-03-25T09:23:32;97623.56;;;20.63;47.32
58373;BME280;44177;43.356;27.672;2023-03-25T09:26:01;97628.34;;;20.63;45.50
58373;BME280;44177;43.356;27.672;2023-03-25T09:28:28;97632.59;;;20.47;44.57
58373;BME280;44177;43.356;27.672;2023-03-25T09:30:54;97622.88;;;20.39;45.21
58373;BME280;44177;43.356;27.672;2023-03-25T09:33:20;97619.25;;;20.42;44.69
58373;BME280;44177;43.356;27.672;2023-03-25T09:35:45;97613.63;;;20.06;45.75
58373;BME280;44177;43.356;27.672;2023-03-25T09:38:11;97619.31;;;20.18;46.11
58373;BME280;44177;43.356;27.672;2023-03-25T09:40:41;97608.94;;;20.63;45.41
58373;BME280;44177;43.356;27.672;2023-03-25T09:43:31;97614.56;;;20.96;44.19
58373;BME280;44177;43.356;27.672;2023-03-25T09:46:02;97609.19;;;21.05;43.05
58373;BME280;44177;43.356;27.672;2023-03-25T09:48:35;97607.56;;;20.91;44.91
58373;BME280;44177;43.356;27.672;2023-03-25T09:51:11;97598.28;;;20.98;43.75
58373;BME280;44177;43.356;27.672;2023-03-25T09:54:01;97613.19;;;21.21;44.89
58373;BME280;44177;43.356;27.672;2023-03-25T09:56:30;97597.94;;;21.12;42.80
58373;BME280;44177;43.356;27.672;2023-03-25T09:59:03;97607.63;;;20.88;44.00
58373;BME280;44177;43.356;27.672;2023-03-25T10:09:38;97594.59;;;21.38;42.33
58373;BME280;44177;43.356;27.672;2023-03-25T10:17:12;97586.94;;;20.56;43.41
58373;BME280;44177;43.356;27.672;2023-03-25T10:23:09;97566.66;;;21.12;43.32
58373;BME280;44177;43.356;27.672;2023-03-25T10:25:38;97558.00;;;21.43;43.56
58373;BME280;44177;43.356;27.672;2023-03-25T10:28:21;97546.63;;;21.37;42.51
58373;BME280;44177;43.356;27.672;2023-03-25T10:30:50;97552.53;;;21.39;41.75
58373;BME280;44177;43.356;27.672;2023-03-25T10:33:33;97544.38;;;21.65;41.84
58373;BME280;44177;43.356;27.672;2023-03-25T10:36:01;97546.16;;;22.01;41.78
58373;BME280;44177;43.356;27.672;2023-03-25T10:38:27;97536.66;;;22.15;39.18
58373;BME280;44177;43.356;27.672;2023-03-25T10:41:12;97535.19;;;22.53;39.38
58373;BME280;44177;43.356;27.672;2023-03-25T10:43:41;97522.19;;;22.89;39.44
58373;BME280;44177;43.356;27.672;2023-03-25T10:46:17;97528.44;;;22.37;38.98
58373;BME280;44177;43.356;27.672;2023-03-25T10:48:47;97514.16;;;22.39;38.97
58373;BME280;44177;43.356;27.672;2023-03-25T10:51:22;97503.81;;;22.39;38.86
58373;BME280;44177;43.356;27.672;2023-03-25T10:53:51;97511.00;;;22.37;39.51
58373;BME280;44177;43.356;27.672;2023-03-25T10:56:25;97514.28;;;22.74;39.87
58373;BME280;44177;43.356;27.672;2023-03-25T10:58:55;97515.81;;;22.88;40.14
58373;BME280;44177;43.356;27.672;2023-03-25T11:01:36;97498.91;;;22.95;38.45
58373;BME280;44177;43.356;27.672;2023-03-25T11:04:04;97496.34;;;23.01;39.19
58373;BME280;44177;43.356;27.672;2023-03-25T11:06:44;97502.94;;;22.43;39.89
58373;BME280;44177;43.356;27.672;2023-03-25T11:11:40;97486.69;;;22.28;39.48
58373;BME280;44177;43.356;27.672;2023-03-25T11:14:06;97482.94;;;22.74;39.72
58373;BME280;44177;43.356;27.672;2023-03-25T11:16:35;97473.91;;;22.82;39.89
58373;BME280;44177;43.356;27.672;2023-03-25T11:19:04;97480.38;;;22.79;38.75
58373;BME280;44177;43.356;27.672;2023-03-25T11:21:34;97466.69;;;22.72;39.37
58373;BME280;44177;43.356;27.672;2023-03-25T11:24:00;97474.72;;;22.57;38.22
58373;BME280;44177;43.356;27.672;2023-03-25T11:26:35;97478.38;;;22.41;40.09
58373;BME280;44177;43.356;27.672;2023-03-25T11:29:07;97466.81;;;22.68;39.66
58373;BME280;44177;43.356;27.672;2023-03-25T11:31:36;97460.25;;;22.62;37.86
58373;BME280;44177;43.356;27.672;2023-03-25T11:36:37;97455.22;;;22.18;40.94
58373;BME280;44177;43.356;27.672;2023-03-25T11:41:46;97440.75;;;21.98;42.79
58373;BME280;44177;43.356;27.672;2023-03-25T11:44:27;97444.75;;;22.09;39.80
58373;BME280;44177;43.356;27.672;2023-03-25T11:47:05;97442.00;;;21.67;40.49
58373;BME280;44177;43.356;27.672;2023-03-25T11:49:35;97427.47;;;21.63;41.58
58373;BME280;44177;43.356;27.672;2023-03-25T11:52:07;97441.47;;;21.72;43.08
58373;BME280;44177;43.356;27.672;2023-03-25T11:54:34;97439.00;;;21.61;40.96
58373;BME280;44177;43.356;27.672;2023-03-25T11:57:03;97449.69;;;21.46;42.29
58373;BME280;44177;43.356;27.672;2023-03-25T11:59:46;97431.94;;;21.44;41.38
58373;BME280;44177;43.356;27.672;2023-03-25T12:07:26;97423.28;;;21.71;41.00
58373;BME280;44177;43.356;27.672;2023-03-25T12:09:56;97415.06;;;21.81;40.60
58373;BME280;44177;43.356;27.672;2023-03-25T12:12:33;97427.53;;;21.89;40.41
58373;BME280;44177;43.356;27.672;2023-03-25T12:15:21;97424.53;;;22.22;40.84
58373;BME280;44177;43.356;27.672;2023-03-25T12:23:42;97421.22;;;22.14;40.41
58373;BME280;44177;43.356;27.672;2023-03-25T12:26:16;97415.31;;;21.99;40.11
58373;BME280;44177;43.356;27.672;2023-03-25T12:42:51;97405.97;;;20.75;42.24
58373;BME280;44177;43.356;27.672;2023-03-25T12:45:37;97393.50;;;20.83;42.97
58373;BME280;44177;43.356;27.672;2023-03-25T12:59:13;97380.47;;;19.98;44.46
58373;BME280;44177;43.356;27.672;2023-03-25T13:07:17;97369.81;;;19.60;44.51
58373;BME280;44177;43.356;27.672;2023-03-25T13:10:19;97369.09;;;19.15;45.47
58373;BME280;44177;43.356;27.672;2023-03-25T13:13:00;97359.69;;;18.89;45.87
58373;BME280;44177;43.356;27.672;2023-03-25T13:15:48;97361.06;;;18.77;46.76
58373;BME280;44177;43.356;27.672;2023-03-25T13:18:24;97336.03;;;18.17;47.97
58373;BME280;44177;43.356;27.672;2023-03-25T13:21:14;97354.44;;;17.99;48.26
58373;BME280;44177;43.356;27.672;2023-03-25T13:23:44;97358.66;;;17.77;49.85
58373;BME280;44177;43.356;27.672;2023-03-25T13:26:16;97349.63;;;17.45;50.66
58373;BME280;44177;43.356;27.672;2023-03-25T13:28:45;97356.72;;;17.74;50.75
58373;BME280;44177;43.356;27.672;2023-03-25T13:31:21;97351.50;;;17.83;49.72
58373;BME280;44177;43.356;27.672;2023-03-25T13:33:52;97339.53;;;17.93;50.05
58373;BME280;44177;43.356;27.672;2023-03-25T13:36:48;97347.00;;;17.65;50.95
58373;BME280;44177;43.356;27.672;2023-03-25T13:39:19;97347.50;;;17.26;50.95
58373;BME280;44177;43.356;27.672;2023-03-25T13:41:55;97341.41;;;17.07;52.09
58373;BME280;44177;43.356;27.672;2023-03-25T13:44:29;97340.44;;;16.86;52.18
58373;BME280;44177;43.356;27.672;2023-03-25T13:49:41;97334.31;;;17.72;51.21
58373;BME280;44177;43.356;27.672;2023-03-25T13:52:09;97335.75;;;17.80;51.43
58373;BME280;44177;43.356;27.672;2023-03-25T13:54:41;97325.34;;;17.91;51.46
58373;BME280;44177;43.356;27.672;2023-03-25T13:57:30;97337.31;;;17.81;50.54
58373;BME280;44177;43.356;27.672;2023-03-25T14:14:13;97335.00;;;16.34;54.87
58373;BME280;44177;43.356;27.672;2023-03-25T14:16:49;97334.41;;;15.37;56.33
58373;BME280;44177;43.356;27.672;2023-03-25T14:19:24;97336.47;;;15.08;58.75
58373;BME280;44177;43.356;27.672;2023-03-25T14:21:52;97327.94;;;14.73;59.71
58373;BME280;44177;43.356;27.672;2023-03-25T14:24:34;97344.44;;;14.30;61.17
58373;BME280;44177;43.356;27.672;2023-03-25T14:29:57;97352.53;;;13.50;63.42
58373;BME280;44177;43.356;27.672;2023-03-25T14:32:35;97347.66;;;13.11;63.89
58373;BME280;44177;43.356;27.672;2023-03-25T14:51:14;97322.47;;;13.83;64.71
58373;BME280;44177;43.356;27.672;2023-03-25T14:56:37;97342.06;;;13.92;63.26
58373;BME280;44177;43.356;27.672;2023-03-25T14:59:14;97331.78;;;13.49;64.58
58373;BME280;44177;43.356;27.672;2023-03-25T15:01:41;97341.88;;;13.38;64.92
58373;BME280;44177;43.356;27.672;2023-03-25T15:04:15;97344.91;;;13.11;65.14
58373;BME280;44177;43.356;27.672;2023-03-25T15:06:46;97342.41;;;12.80;65.54
58373;BME280;44177;43.356;27.672;2023-03-25T15:09:15;97344.50;;;12.42;66.52
58373;BME280;44177;43.356;27.672;2023-03-25T15:11:54;97347.56;;;12.34;67.50
58373;BME280;44177;43.356;27.672;2023-03-25T15:15:02;97348.34;;;11.93;68.53
58373;BME280;44177;43.356;27.672;2023-03-25T15:17:52;97355.47;;;11.97;68.88
58373;BME280;44177;43.356;27.672;2023-03-25T15:25:48;97325.53;;;11.36;70.54
58373;BME280;44177;43.356;27.672;2023-03-25T15:34:14;97354.81;;;11.05;72.77
58373;BME280;44177;43.356;27.672;2023-03-25T15:42:09;97342.88;;;10.87;73.53
58373;BME280;44177;43.356;27.672;2023-03-25T15:47:35;97351.09;;;10.60;73.73
58373;BME280;44177;43.356;27.672;2023-03-25T15:55:52;97350.00;;;9.95;76.56